Time;durP1;ratioP1;P1;durP2;ratioP2;P2;SDS_P1;SDS_P2;PMS_P1;PMS_P2;Temp;Humidity;BMP_temperature;BMP_pressure;BME280_temperature;BME280_humidity;BME280_pressure;Samples;Min_cycle;Max_cycle;Signal;HPM_P1;HPM_P2
2022/11/12 00:02:37;;;;;;;5.95;4.47;;;;;;;;;;4898157;29;20204;-61
2022/11/12 00:05:22;;;;;;;6.82;4.35;;;;;;;;;;4898540;29;20581;-61
2022/11/12 00:08:07;;;;;;;17.77;5.28;;;;;;;;;;4899250;29;20099;-61
2022/11/12 00:10:52;;;;;;;18.88;5.40;;;;;;;;;;4899191;29;20132;-61
2022/11/12 00:13:36;;;;;;;9.48;4.25;;;;;;;;;;4898308;29;20540;-61
2022/11/12 00:16:21;;;;;;;9.35;4.30;;;;;;;;;;4898823;29;20176;-61
2022/11/12 00:19:06;;;;;;;4.68;3.63;;;;;;;;;;4898999;29;20096;-61
2022/11/12 00:21:51;;;;;;;3.90;3.30;;;;;;;;;;4898010;29;20067;-61
2022/11/12 00:24:36;;;;;;;6.43;2.80;;;;;;;;;;4899111;29;20161;-61
2022/11/12 00:27:21;;;;;;;7.28;3.10;;;;;;;;;;4898695;29;20529;-61
2022/11/12 00:30:06;;;;;;;5.80;2.95;;;;;;;;;;4898443;29;20088;-61
2022/11/12 00:32:51;;;;;;;9.55;3.28;;;;;;;;;;4897955;29;20525;-61
2022/11/12 00:35:35;;;;;;;9.60;3.38;;;;;;;;;;4899495;29;20650;-61
2022/11/12 00:38:20;;;;;;;16.75;4.65;;;;;;;;;;4899116;29;20517;-60
2022/11/12 00:41:06;;;;;;;9.07;3.47;;;;;;;;;;4899710;29;20166;-62
2022/11/12 00:43:50;;;;;;;20.60;3.75;;;;;;;;;;4898793;29;20052;-61
2022/11/12 00:46:35;;;;;;;15.82;4.03;;;;;;;;;;4899137;29;20091;-61
2022/11/12 00:49:20;;;;;;;20.95;3.75;;;;;;;;;;4899660;29;20051;-61
2022/11/12 00:52:05;;;;;;;38.20;4.40;;;;;;;;;;4898462;29;20156;-62
2022/11/12 00:54:50;;;;;;;22.95;4.32;;;;;;;;;;4899072;29;20060;-62
2022/11/12 00:57:35;;;;;;;21.10;3.97;;;;;;;;;;4898387;29;20152;-61
2022/11/12 01:00:20;;;;;;;19.08;3.42;;;;;;;;;;4898202;29;20068;-61
2022/11/12 01:03:04;;;;;;;31.60;4.50;;;;;;;;;;4897322;29;20409;-61
2022/11/12 01:05:49;;;;;;;17.60;4.20;;;;;;;;;;4898251;29;20052;-61
2022/11/12 01:08:34;;;;;;;4.53;2.83;;;;;;;;;;4898475;29;20052;-62
2022/11/12 01:11:21;;;;;;;3.28;2.95;;;;;;;;;;4898350;29;20059;-61
2022/11/12 01:14:07;;;;;;;3.58;2.42;;;;;;;;;;4897778;29;20110;-61
2022/11/12 01:16:52;;;;;;;2.47;2.28;;;;;;;;;;4897989;29;20430;-61
2022/11/12 01:19:36;;;;;;;3.20;2.90;;;;;;;;;;4897791;29;20422;-61
2022/11/12 01:22:22;;;;;;;2.65;2.45;;;;;;;;;;4897253;29;20059;-61
2022/11/12 01:25:07;;;;;;;4.78;2.95;;;;;;;;;;4897512;29;20418;-62
2022/11/12 01:27:52;;;;;;;4.57;2.92;;;;;;;;;;4897685;29;20063;-61
2022/11/12 01:30:37;;;;;;;3.10;2.80;;;;;;;;;;4897534;29;20052;-61
2022/11/12 01:33:21;;;;;;;2.72;2.53;;;;;;;;;;4896941;29;20064;-60
2022/11/12 01:36:07;;;;;;;3.53;2.78;;;;;;;;;;4897734;29;20503;-61
2022/11/12 01:38:53;;;;;;;5.80;2.92;;;;;;;;;;4896830;29;20619;-61
2022/11/12 01:41:39;;;;;;;5.25;3.67;;;;;;;;;;4896080;29;20058;-62
2022/11/12 01:44:28;;;;;;;3.65;3.30;;;;;;;;;;4897278;29;20071;-62
2022/11/12 01:47:20;;;;;;;3.92;3.50;;;;;;;;;;4896540;29;20060;-60
2022/11/12 01:50:11;;;;;;;5.03;3.20;;;;;;;;;;4896365;29;20584;-61
2022/11/12 01:53:00;;;;;;;8.85;4.20;;;;;;;;;;4896484;29;20594;-61
2022/11/12 01:55:45;;;;;;;3.65;3.28;;;;;;;;;;4896910;29;20147;-61
2022/11/12 01:58:31;;;;;;;5.03;3.10;;;;;;;;;;4897271;29;20059;-61
2022/11/12 02:01:16;;;;;;;9.20;3.50;;;;;;;;;;4896791;29;20072;-62
2022/11/12 02:04:00;;;;;;;6.43;3.38;;;;;;;;;;4896408;29;20084;-61
2022/11/12 02:06:46;;;;;;;3.60;3.10;;;;;;;;;;4897307;29;20047;-61
2022/11/12 02:09:32;;;;;;;6.97;3.22;;;;;;;;;;4897428;29;20143;-62
2022/11/12 02:15:21;;;;;;;8.75;3.53;;;;;;;;;;4897818;29;20540;-61
2022/11/12 02:18:05;;;;;;;3.85;3.45;;;;;;;;;;4897507;29;20054;-61
2022/11/12 02:20:55;;;;;;;5.32;3.03;;;;;;;;;;4897498;29;20060;-61
2022/11/12 02:23:40;;;;;;;6.97;3.40;;;;;;;;;;4895445;29;20055;-61
2022/11/12 02:26:26;;;;;;;4.85;2.70;;;;;;;;;;4896852;29;20502;-61
2022/11/12 02:29:12;;;;;;;8.60;4.00;;;;;;;;;;4898783;29;20060;-61
2022/11/12 02:31:57;;;;;;;8.13;3.58;;;;;;;;;;4900019;29;20539;-61
2022/11/12 02:34:42;;;;;;;3.80;3.30;;;;;;;;;;4900709;29;20104;-61
2022/11/12 02:37:27;;;;;;;3.65;2.80;;;;;;;;;;4900737;29;20059;-61
2022/11/12 02:40:11;;;;;;;3.67;2.95;;;;;;;;;;4900691;29;20060;-61
2022/11/12 02:42:56;;;;;;;4.28;2.92;;;;;;;;;;4899804;29;20147;-62
2022/11/12 02:45:41;;;;;;;3.38;2.92;;;;;;;;;;4900382;29;20055;-61
2022/11/12 02:48:26;;;;;;;3.50;3.17;;;;;;;;;;4900515;29;20135;-61
2022/11/12 02:51:11;;;;;;;3.45;3.15;;;;;;;;;;4899593;29;20056;-60
2022/11/12 02:53:56;;;;;;;6.28;3.70;;;;;;;;;;4899976;29;20466;-61
2022/11/12 02:56:41;;;;;;;4.07;3.42;;;;;;;;;;4900295;29;20104;-61
2022/11/12 02:59:26;;;;;;;4.18;3.70;;;;;;;;;;4899438;29;20056;-60
2022/11/12 03:02:11;;;;;;;4.70;3.75;;;;;;;;;;4899571;29;20063;-61
2022/11/12 03:04:56;;;;;;;5.70;3.75;;;;;;;;;;4900720;29;20056;-61
2022/11/12 03:07:41;;;;;;;6.10;3.17;;;;;;;;;;4901017;29;20062;-61
2022/11/12 03:10:26;;;;;;;4.18;3.10;;;;;;;;;;4899588;29;20060;-60
2022/11/12 03:13:11;;;;;;;3.95;3.33;;;;;;;;;;4899421;29;20470;-60
2022/11/12 03:15:59;;;;;;;5.13;3.30;;;;;;;;;;4900671;29;20075;-60
2022/11/12 03:18:44;;;;;;;5.40;3.42;;;;;;;;;;4900258;29;20063;-60
2022/11/12 03:21:29;;;;;;;4.40;3.35;;;;;;;;;;4899582;29;20060;-59
2022/11/12 03:24:14;;;;;;;6.25;3.17;;;;;;;;;;4900419;29;20067;-59
2022/11/12 03:26:59;;;;;;;7.65;3.88;;;;;;;;;;4900221;29;20155;-59
2022/11/12 03:29:43;;;;;;;12.55;4.22;;;;;;;;;;4900516;29;20076;-59
2022/11/12 03:32:28;;;;;;;5.15;3.50;;;;;;;;;;4898742;29;20056;-60
2022/11/12 03:35:13;;;;;;;13.20;4.07;;;;;;;;;;4900438;29;20115;-60
2022/11/12 03:37:58;;;;;;;14.88;4.78;;;;;;;;;;4899948;29;20064;-60
2022/11/12 03:40:43;;;;;;;15.63;4.20;;;;;;;;;;4899145;29;20137;-60
2022/11/12 03:43:28;;;;;;;42.60;5.63;;;;;;;;;;4899288;29;20059;-60
2022/11/12 03:46:13;;;;;;;43.85;6.40;;;;;;;;;;4899588;29;20135;-59
2022/11/12 03:48:58;;;;;;;38.63;6.53;;;;;;;;;;4899121;29;20073;-59
2022/11/12 03:51:43;;;;;;;12.82;4.63;;;;;;;;;;4898975;29;20093;-59
2022/11/12 03:54:28;;;;;;;15.32;5.30;;;;;;;;;;4899434;29;20071;-59
2022/11/12 03:57:13;;;;;;;27.73;5.35;;;;;;;;;;4899370;29;20056;-59
2022/11/12 03:59:58;;;;;;;21.67;6.00;;;;;;;;;;4899455;29;20058;-59
2022/11/12 04:02:43;;;;;;;20.73;5.70;;;;;;;;;;4898355;29;20075;-60
2022/11/12 04:08:35;;;;;;;19.85;4.35;;;;;;;;;;4899414;29;20097;-60
2022/11/12 04:11:19;;;;;;;11.85;4.63;;;;;;;;;;4898199;29;20139;-60
2022/11/12 04:14:04;;;;;;;9.18;4.40;;;;;;;;;;4898869;29;20051;-59
2022/11/12 04:22:57;;;;;;;7.72;4.40;;;;;;;;;;4898192;29;20063;-61
2022/11/12 04:31:49;;;;;;;7.20;4.57;;;;;;;;;;4898281;29;20270;-61
2022/11/12 04:34:34;;;;;;;25.95;5.03;;;;;;;;;;4898892;29;20122;-60
2022/11/12 04:37:20;;;;;;;17.25;5.22;;;;;;;;;;4898888;29;20139;-61
2022/11/12 04:44:58;;;;;;;10.30;4.40;;;;;;;;;;4898707;29;20067;-60
2022/11/12 04:46:17;;;;;;;12.65;4.63;;;;;;;;;;4898349;29;20044;-60
2022/11/12 04:49:02;;;;;;;29.38;4.80;;;;;;;;;;4898527;29;20100;-61
2022/11/12 04:52:05;;;;;;;11.18;4.25;;;;;;;;;;4897981;29;20076;-61
2022/11/12 04:54:50;;;;;;;8.75;4.50;;;;;;;;;;4898181;29;20593;-60
2022/11/12 04:57:36;;;;;;;7.10;4.07;;;;;;;;;;4897929;29;20052;-60
2022/11/12 05:03:10;;;;;;;7.40;4.97;;;;;;;;;;5074683;23;20044;-59
2022/11/12 05:06:02;;;;;;;26.38;5.60;;;;;;;;;;4916944;29;20055;-59
2022/11/12 05:08:47;;;;;;;34.00;5.97;;;;;;;;;;4916847;29;20107;-59
2022/11/12 05:11:31;;;;;;;21.73;5.95;;;;;;;;;;4916675;29;20117;-58
2022/11/12 05:14:17;;;;;;;8.65;5.53;;;;;;;;;;4917010;29;20055;-57
2022/11/12 05:17:02;;;;;;;18.00;5.82;;;;;;;;;;4916700;29;20416;-57
2022/11/12 05:19:47;;;;;;;11.13;5.10;;;;;;;;;;4917246;29;20111;-59
2022/11/12 05:22:32;;;;;;;14.73;6.85;;;;;;;;;;4916467;29;20059;-58
2022/11/12 05:25:34;;;;;;;9.25;5.25;;;;;;;;;;4915578;29;20043;-57
2022/11/12 05:28:19;;;;;;;12.65;5.68;;;;;;;;;;4916592;29;20058;-58
2022/11/12 05:31:04;;;;;;;9.93;5.32;;;;;;;;;;4915545;29;20058;-59
2022/11/12 05:33:49;;;;;;;9.30;5.60;;;;;;;;;;4915826;29;20063;-59
2022/11/12 05:36:34;;;;;;;8.45;5.88;;;;;;;;;;4915106;29;20134;-59
2022/11/12 05:39:18;;;;;;;39.35;23.02;;;;;;;;;;4916550;29;20100;-59
2022/11/12 05:42:03;;;;;;;8.80;6.00;;;;;;;;;;4915806;29;20682;-58
2022/11/12 05:44:58;;;;;;;10.63;7.35;;;;;;;;;;4915974;29;20047;-58
2022/11/12 05:47:43;;;;;;;6.75;5.10;;;;;;;;;;4916647;29;20103;-59
2022/11/12 05:50:27;;;;;;;11.15;7.90;;;;;;;;;;4917222;29;20051;-60
2022/11/12 05:53:23;;;;;;;6.47;5.00;;;;;;;;;;4916332;29;20125;-59
2022/11/12 05:56:08;;;;;;;9.55;6.55;;;;;;;;;;4916342;29;20103;-60
2022/11/12 05:58:54;;;;;;;9.27;6.00;;;;;;;;;;4916311;29;20055;-60
2022/11/12 06:01:42;;;;;;;12.52;8.93;;;;;;;;;;4916361;29;20059;-60
2022/11/12 06:04:28;;;;;;;7.05;5.68;;;;;;;;;;4915700;29;20524;-59
2022/11/12 06:07:12;;;;;;;7.65;5.63;;;;;;;;;;4916077;29;20051;-59
2022/11/12 06:09:57;;;;;;;14.07;9.95;;;;;;;;;;4916452;29;20143;-60
2022/11/12 06:12:42;;;;;;;7.80;5.40;;;;;;;;;;4915535;29;20143;-60
2022/11/12 06:15:27;;;;;;;7.80;5.07;;;;;;;;;;4915686;29;20165;-60
2022/11/12 06:18:12;;;;;;;5.47;4.35;;;;;;;;;;4915930;29;20135;-60
2022/11/12 06:21:18;;;;;;;8.98;5.38;;;;;;;;;;4916072;29;20063;-60
2022/11/12 06:24:03;;;;;;;8.55;4.82;;;;;;;;;;4915696;29;20051;-59
2022/11/12 06:26:49;;;;;;;10.90;4.68;;;;;;;;;;4915581;29;20111;-60
2022/11/12 06:29:33;;;;;;;7.47;4.43;;;;;;;;;;4915542;29;20064;-60
2022/11/12 06:32:18;;;;;;;9.18;4.18;;;;;;;;;;4915259;29;20056;-59
2022/11/12 06:35:03;;;;;;;7.97;5.13;;;;;;;;;;4915799;29;20184;-59
2022/11/12 06:37:48;;;;;;;8.07;4.70;;;;;;;;;;4915877;29;20782;-58
2022/11/12 06:40:33;;;;;;;6.63;4.13;;;;;;;;;;4914918;29;20583;-59
2022/11/12 06:43:19;;;;;;;5.95;4.90;;;;;;;;;;4914884;29;20112;-58
2022/11/12 06:46:05;;;;;;;7.25;4.60;;;;;;;;;;4915437;29;20124;-58
2022/11/12 06:48:50;;;;;;;7.07;4.97;;;;;;;;;;4915624;29;20136;-58
2022/11/12 06:51:35;;;;;;;8.30;5.22;;;;;;;;;;4915392;29;20164;-60
2022/11/12 06:54:19;;;;;;;9.40;4.80;;;;;;;;;;4915369;29;20063;-58
2022/11/12 06:57:04;;;;;;;8.20;5.07;;;;;;;;;;4915651;29;20064;-58
2022/11/12 06:59:49;;;;;;;15.88;4.88;;;;;;;;;;4915628;29;20142;-58
2022/11/12 07:02:35;;;;;;;11.52;4.95;;;;;;;;;;4914793;29;20054;-58
2022/11/12 07:05:19;;;;;;;9.13;5.07;;;;;;;;;;4915369;29;20059;-58
2022/11/12 07:08:04;;;;;;;12.23;4.78;;;;;;;;;;4915524;29;20058;-58
2022/11/12 07:10:54;;;;;;;17.75;5.15;;;;;;;;;;4915645;29;20075;-58
2022/11/12 07:13:38;;;;;;;19.13;4.95;;;;;;;;;;4914805;29;20547;-59
2022/11/12 07:16:23;;;;;;;9.65;5.35;;;;;;;;;;4918953;29;20066;-59
2022/11/12 07:19:08;;;;;;;15.20;7.28;;;;;;;;;;4919039;29;20055;-59
2022/11/12 07:21:53;;;;;;;13.35;6.13;;;;;;;;;;4918304;29;20416;-59
2022/11/12 07:24:38;;;;;;;15.70;5.57;;;;;;;;;;4917874;29;20127;-59
2022/11/12 07:27:22;;;;;;;10.63;5.43;;;;;;;;;;4918488;29;20055;-59
2022/11/12 07:30:08;;;;;;;13.38;5.75;;;;;;;;;;4918687;29;20194;-58
2022/11/12 07:32:56;;;;;;;10.90;6.80;;;;;;;;;;4918002;29;20531;-58
2022/11/12 07:35:41;;;;;;;30.08;7.95;;;;;;;;;;4918407;29;20143;-59
2022/11/12 07:38:27;;;;;;;19.95;7.57;;;;;;;;;;4918547;29;20596;-59
2022/11/12 07:41:13;;;;;;;10.63;6.30;;;;;;;;;;4918319;29;20063;-59
2022/11/12 07:43:58;;;;;;;9.43;7.00;;;;;;;;;;4917776;29;20158;-59
2022/11/12 07:46:43;;;;;;;10.88;5.85;;;;;;;;;;4918381;29;20396;-60
2022/11/12 07:49:28;;;;;;;9.68;5.97;;;;;;;;;;4918647;29;20148;-60
2022/11/12 07:52:13;;;;;;;10.70;5.70;;;;;;;;;;4917623;29;20107;-59
2022/11/12 07:54:57;;;;;;;9.18;5.90;;;;;;;;;;4918267;29;20433;-59
2022/11/12 07:57:42;;;;;;;26.90;6.38;;;;;;;;;;4918194;29;20092;-59
2022/11/12 08:00:27;;;;;;;10.43;6.10;;;;;;;;;;4918120;29;20063;-59
2022/11/12 08:03:12;;;;;;;23.85;6.70;;;;;;;;;;4917309;29;20529;-59
2022/11/12 08:05:58;;;;;;;13.15;5.40;;;;;;;;;;4917698;29;20048;-60
2022/11/12 08:08:43;;;;;;;8.82;5.55;;;;;;;;;;4917822;29;20156;-60
2022/11/12 08:11:28;;;;;;;10.10;6.15;;;;;;;;;;4917722;29;20067;-60
2022/11/12 08:14:12;;;;;;;9.60;6.30;;;;;;;;;;4917837;29;20135;-59
2022/11/12 08:16:57;;;;;;;11.80;7.03;;;;;;;;;;4917876;29;20055;-59
2022/11/12 08:19:42;;;;;;;11.23;6.47;;;;;;;;;;4917687;29;20052;-59
2022/11/12 08:22:27;;;;;;;10.43;6.80;;;;;;;;;;4916994;29;20188;-60
2022/11/12 08:25:11;;;;;;;8.20;6.03;;;;;;;;;;4917193;29;20071;-60
2022/11/12 08:27:57;;;;;;;7.97;5.53;;;;;;;;;;4917510;29;20055;-60
2022/11/12 08:30:42;;;;;;;9.98;6.45;;;;;;;;;;4917312;29;20059;-60
2022/11/12 08:33:27;;;;;;;17.70;6.43;;;;;;;;;;4916529;29;20108;-60
2022/11/12 08:36:13;;;;;;;9.73;6.22;;;;;;;;;;4917660;29;20083;-60
2022/11/12 08:38:57;;;;;;;8.48;6.22;;;;;;;;;;4917596;29;20139;-60
2022/11/12 08:41:42;;;;;;;9.48;6.22;;;;;;;;;;4916646;29;20531;-59
2022/11/12 08:44:27;;;;;;;9.40;6.65;;;;;;;;;;4917273;29;20058;-60
2022/11/12 08:47:13;;;;;;;10.88;6.80;;;;;;;;;;4917162;29;20072;-60
2022/11/12 08:49:58;;;;;;;9.75;6.95;;;;;;;;;;4917206;29;20080;-59
2022/11/12 08:52:43;;;;;;;9.50;6.45;;;;;;;;;;4916357;29;20100;-60
2022/11/12 08:55:29;;;;;;;10.68;7.40;;;;;;;;;;4917251;29;20180;-59
2022/11/12 08:58:14;;;;;;;9.07;6.22;;;;;;;;;;4917008;29;20135;-59
2022/11/12 09:01:03;;;;;;;9.30;7.25;;;;;;;;;;4916705;29;20146;-60
2022/11/12 09:03:48;;;;;;;10.52;6.65;;;;;;;;;;4916421;29;20059;-60
2022/11/12 09:06:33;;;;;;;10.25;6.88;;;;;;;;;;4916855;29;20146;-60
2022/11/12 09:09:18;;;;;;;12.13;6.95;;;;;;;;;;4916169;29;20047;-59
2022/11/12 09:12:03;;;;;;;11.30;7.78;;;;;;;;;;4916298;29;20055;-59
2022/11/12 09:14:58;;;;;;;12.98;8.57;;;;;;;;;;4916638;29;20535;-60
2022/11/12 09:18:05;;;;;;;13.38;8.85;;;;;;;;;;4916504;29;20151;-59
2022/11/12 09:20:50;;;;;;;12.93;8.27;;;;;;;;;;4916780;29;20063;-59
2022/11/12 09:23:35;;;;;;;14.60;9.23;;;;;;;;;;4916101;29;20140;-59
2022/11/12 09:26:20;;;;;;;14.32;8.90;;;;;;;;;;4916497;29;20054;-59
2022/11/12 09:29:04;;;;;;;13.20;8.55;;;;;;;;;;4915955;29;20050;-60
2022/11/12 09:31:49;;;;;;;10.93;7.88;;;;;;;;;;4915108;29;20523;-59
2022/11/12 09:34:34;;;;;;;14.23;8.85;;;;;;;;;;4916574;29;20529;-59
2022/11/12 09:37:19;;;;;;;13.57;9.82;;;;;;;;;;4916000;29;20523;-59
2022/11/12 09:40:05;;;;;;;14.18;9.45;;;;;;;;;;4916565;29;20055;-59
2022/11/12 09:42:51;;;;;;;13.20;9.45;;;;;;;;;;4915755;29;20211;-59
2022/11/12 09:45:37;;;;;;;13.05;9.18;;;;;;;;;;4916242;29;20070;-59
2022/11/12 09:48:25;;;;;;;13.55;8.63;;;;;;;;;;4916466;29;20417;-59
2022/11/12 09:51:15;;;;;;;10.95;8.50;;;;;;;;;;4916250;29;20107;-59
2022/11/12 09:54:20;;;;;;;13.38;9.10;;;;;;;;;;4915868;29;20050;-59
2022/11/12 09:57:04;;;;;;;;;;;;;;;;;;4916613;29;20054;-60
2022/11/12 09:59:49;;;;;;;13.65;8.82;;;;;;;;;;4916337;29;19931;-59
2022/11/12 10:02:45;;;;;;;16.00;8.90;;;;;;;;;;4914612;29;20079;-59
2022/11/12 10:05:35;;;;;;;17.35;9.77;;;;;;;;;;4915984;29;20046;-60
2022/11/12 10:08:33;;;;;;;13.82;9.20;;;;;;;;;;4916283;29;20059;-59
2022/11/12 10:11:21;;;;;;;13.23;9.00;;;;;;;;;;4915946;29;20410;-59
2022/11/12 10:14:20;;;;;;;13.50;9.15;;;;;;;;;;4915624;29;20075;-60
2022/11/12 10:17:08;;;;;;;12.65;8.82;;;;;;;;;;4916137;29;20059;-59
2022/11/12 10:19:59;;;;;;;15.90;9.98;;;;;;;;;;4915013;29;20445;-60
2022/11/12 10:22:57;;;;;;;13.65;9.40;;;;;;;;;;4915483;29;20059;-59
2022/11/12 10:25:43;;;;;;;16.10;8.52;;;;;;;;;;4915763;29;20075;-60
2022/11/12 10:28:32;;;;;;;13.85;9.13;;;;;;;;;;4916077;29;20138;-60
2022/11/12 10:31:23;;;;;;;14.02;8.52;;;;;;;;;;4915876;29;20524;-60
2022/11/12 10:34:15;;;;;;;14.40;9.18;;;;;;;;;;4915887;29;20568;-59
2022/11/12 10:37:12;;;;;;;59.35;27.23;;;;;;;;;;4915780;29;20116;-59
2022/11/12 10:39:57;;;;;;;99.97;48.33;;;;;;;;;;4916128;29;20381;-59
2022/11/12 10:43:02;;;;;;;43.25;24.52;;;;;;;;;;4915383;29;20539;-60
2022/11/12 10:45:48;;;;;;;59.65;28.25;;;;;;;;;;4915809;29;20089;-60
2022/11/12 10:48:33;;;;;;;183.73;80.10;;;;;;;;;;4915845;29;20056;-60
2022/11/12 10:51:38;;;;;;;92.97;42.30;;;;;;;;;;4919883;29;20055;-58
2022/11/12 10:54:25;;;;;;;86.65;39.88;;;;;;;;;;4919577;29;20047;-59
2022/11/12 10:57:24;;;;;;;22.77;14.25;;;;;;;;;;4919527;29;20063;-58
2022/11/12 11:00:12;;;;;;;61.53;33.08;;;;;;;;;;4918650;29;20063;-61
2022/11/12 11:02:57;;;;;;;13.80;9.43;;;;;;;;;;4918952;29;20092;-58
2022/11/12 11:05:57;;;;;;;12.40;8.82;;;;;;;;;;4919392;29;20568;-58
2022/11/12 11:08:43;;;;;;;13.68;9.55;;;;;;;;;;4919372;29;20058;-58
2022/11/12 11:11:29;;;;;;;13.02;9.13;;;;;;;;;;4919460;29;20151;-58
2022/11/12 11:14:33;;;;;;;12.75;9.23;;;;;;;;;;4919051;29;20060;-59
2022/11/12 11:17:18;;;;;;;10.50;8.00;;;;;;;;;;4919419;29;20055;-58
2022/11/12 11:20:04;;;;;;;9.77;8.15;;;;;;;;;;4918931;29;20143;-59
2022/11/12 11:22:55;;;;;;;9.85;7.80;;;;;;;;;;4918447;29;20445;-59
2022/11/12 11:25:41;;;;;;;11.88;9.00;;;;;;;;;;4918784;29;20047;-59
2022/11/12 11:28:39;;;;;;;11.77;8.73;;;;;;;;;;4918657;29;20139;-59
2022/11/12 11:31:43;;;;;;;13.43;9.20;;;;;;;;;;4918833;29;20046;-59
2022/11/12 11:34:43;;;;;;;11.38;8.75;;;;;;;;;;4918810;29;20055;-59
2022/11/12 11:37:29;;;;;;;10.30;8.07;;;;;;;;;;4918454;29;20180;-58
2022/11/12 11:40:23;;;;;;;10.10;7.68;;;;;;;;;;4918543;29;20055;-59
2022/11/12 11:43:10;;;;;;;13.20;8.77;;;;;;;;;;4917943;29;20054;-60
2022/11/12 11:46:14;;;;;;;9.60;8.10;;;;;;;;;;4918380;29;20051;-61
2022/11/12 11:49:14;;;;;;;9.88;7.72;;;;;;;;;;4918287;29;20051;-59
2022/11/12 11:52:03;;;;;;;9.93;8.10;;;;;;;;;;4917573;29;20055;-59
2022/11/12 11:55:01;;;;;;;8.50;7.60;;;;;;;;;;4918020;29;20067;-59
2022/11/12 11:58:05;;;;;;;8.60;7.07;;;;;;;;;;4918199;29;20127;-59
2022/11/12 12:01:05;;;;;;;8.55;7.60;;;;;;;;;;4917274;29;20059;-59
2022/11/12 12:03:58;;;;;;;11.23;8.10;;;;;;;;;;4917206;29;20123;-59
2022/11/12 12:06:59;;;;;;;8.85;7.53;;;;;;;;;;4917849;29;20055;-59
2022/11/12 12:09:50;;;;;;;9.98;7.95;;;;;;;;;;4916938;29;20473;-60
2022/11/12 12:12:41;;;;;;;9.55;8.55;;;;;;;;;;4917072;29;20524;-60
2022/11/12 12:15:31;;;;;;;10.13;7.75;;;;;;;;;;4917816;29;20589;-60
2022/11/12 12:18:19;;;;;;;10.23;8.32;;;;;;;;;;4917817;29;20130;-59
2022/11/12 12:21:10;;;;;;;9.18;8.20;;;;;;;;;;4917677;29;20086;-60
2022/11/12 12:23:59;;;;;;;12.05;9.10;;;;;;;;;;4917115;29;20076;-58
2022/11/12 12:26:46;;;;;;;9.75;8.25;;;;;;;;;;4917485;29;20047;-59
2022/11/12 12:29:50;;;;;;;9.63;8.30;;;;;;;;;;4917598;29;20058;-59
2022/11/12 12:32:37;;;;;;;10.63;8.77;;;;;;;;;;4915682;29;20051;-60
2022/11/12 12:35:25;;;;;;;11.60;8.77;;;;;;;;;;4917278;29;20107;-60
2022/11/12 12:38:13;;;;;;;8.90;7.93;;;;;;;;;;4916587;29;20123;-60
2022/11/12 12:41:03;;;;;;;11.90;8.98;;;;;;;;;;4916583;29;20055;-60
2022/11/12 12:43:51;;;;;;;12.98;9.77;;;;;;;;;;4917003;29;20074;-59
2022/11/12 12:46:39;;;;;;;11.90;9.57;;;;;;;;;;4917198;29;20131;-60
2022/11/12 12:49:29;;;;;;;12.90;10.57;;;;;;;;;;4916968;29;20062;-60
2022/11/12 12:52:14;;;;;;;12.23;10.32;;;;;;;;;;4916752;29;20172;-60
2022/11/12 12:54:59;;;;;;;13.13;10.52;;;;;;;;;;4917267;29;20063;-61
2022/11/12 12:57:44;;;;;;;12.70;10.18;;;;;;;;;;4917096;29;20058;-59
2022/11/12 13:00:29;;;;;;;14.32;11.48;;;;;;;;;;4929177;29;20063;-59
2022/11/12 13:03:34;;;;;;;17.42;11.93;;;;;;;;;;4916362;29;20051;-60
2022/11/12 13:06:22;;;;;;;16.45;11.93;;;;;;;;;;4916843;29;20584;-60
2022/11/12 13:09:13;;;;;;;15.77;11.75;;;;;;;;;;4917184;29;20075;-59
2022/11/12 13:14:50;;;;;;;17.40;12.27;;;;;;;;;;4916980;29;20159;-59
2022/11/12 13:17:43;;;;;;;16.30;12.82;;;;;;;;;;4916532;29;20063;-59
2022/11/12 13:20:33;;;;;;;16.67;12.80;;;;;;;;;;4916747;29;20127;-60
2022/11/12 13:24:04;;;;;;;20.00;13.98;;;;;;;;;;4915879;29;20507;-59
2022/11/12 13:26:42;;;;;;;18.67;13.52;;;;;;;;;;4916409;29;20059;-58
2022/11/12 13:29:27;;;;;;;20.20;14.15;;;;;;;;;;4916557;29;20055;-59
2022/11/12 13:32:29;;;;;;;19.23;13.63;;;;;;;;;;4915966;29;20178;-59
2022/11/12 13:35:23;;;;;;;19.40;13.55;;;;;;;;;;4916396;29;20093;-60
2022/11/12 13:38:09;;;;;;;19.23;13.73;;;;;;;;;;4916195;29;20285;-59
2022/11/12 13:41:07;;;;;;;19.38;13.50;;;;;;;;;;4937248;23;20103;-62
2022/11/12 13:43:52;;;;;;;19.92;13.05;;;;;;;;;;4858674;29;20153;-61
2022/11/12 13:46:37;;;;;;;18.60;13.73;;;;;;;;;;4860232;29;20060;-61
2022/11/12 13:49:22;;;;;;;20.15;14.95;;;;;;;;;;4859879;29;20065;-61
2022/11/12 13:52:07;;;;;;;23.10;15.18;;;;;;;;;;4859726;29;20094;-62
2022/11/12 13:54:59;;;;;;;22.52;15.65;;;;;;;;;;4860139;29;20109;-61
2022/11/12 13:57:52;;;;;;;25.33;16.08;;;;;;;;;;4859805;29;20064;-61
2022/11/12 14:00:37;;;;;;;24.17;17.23;;;;;;;;;;4859981;29;20064;-61
2022/11/12 14:03:23;;;;;;;25.05;16.83;;;;;;;;;;4859620;29;20109;-61
2022/11/12 14:06:31;;;;;;;25.95;17.33;;;;;;;;;;4859967;29;20094;-62
2022/11/12 14:09:25;;;;;;;23.25;17.05;;;;;;;;;;4860112;29;20149;-63
2022/11/12 14:12:20;;;;;;;24.65;16.75;;;;;;;;;;4859154;29;20125;-62
2022/11/12 14:15:20;;;;;;;26.05;16.88;;;;;;;;;;4860231;29;20057;-62
2022/11/12 14:18:16;;;;;;;25.35;15.75;;;;;;;;;;4859812;29;20105;-61
2022/11/12 14:21:14;;;;;;;23.95;17.17;;;;;;;;;;4860159;29;20533;-61
2022/11/12 14:24:00;;;;;;;28.77;18.83;;;;;;;;;;4860417;29;20133;-61
2022/11/12 14:26:45;;;;;;;25.38;17.52;;;;;;;;;;4863956;29;20056;-61
2022/11/12 14:29:30;;;;;;;27.98;18.00;;;;;;;;;;4864424;29;20064;-61
2022/11/12 14:32:20;;;;;;;25.95;17.02;;;;;;;;;;4863584;29;20426;-62
2022/11/12 14:35:23;;;;;;;27.40;17.92;;;;;;;;;;4862892;29;20056;-61
2022/11/12 14:38:08;;;;;;;28.13;17.02;;;;;;;;;;4864153;29;20125;-61
2022/11/12 14:40:58;;;;;;;26.77;17.15;;;;;;;;;;4863902;29;20533;-61
2022/11/12 14:43:44;;;;;;;29.23;18.48;;;;;;;;;;4862364;29;20052;-61
2022/11/12 14:46:35;;;;;;;29.20;18.05;;;;;;;;;;4863337;29;20066;-61
2022/11/12 14:49:46;;;;;;;25.80;17.30;;;;;;;;;;4863686;29;20068;-61
2022/11/12 14:52:34;;;;;;;23.90;16.55;;;;;;;;;;4863106;29;20173;-62
2022/11/12 14:55:24;;;;;;;29.33;18.63;;;;;;;;;;4863650;29;20056;-61
2022/11/12 14:58:13;;;;;;;28.23;18.33;;;;;;;;;;4863526;29;20064;-61
2022/11/12 15:01:15;;;;;;;26.55;18.08;;;;;;;;;;4863924;29;20186;-63
2022/11/12 15:04:23;;;;;;;42.95;26.38;;;;;;;;;;4863594;29;20117;-62
2022/11/12 15:07:25;;;;;;;30.95;19.77;;;;;;;;;;4862543;29;20105;-62
2022/11/12 15:10:29;;;;;;;29.05;19.17;;;;;;;;;;4862220;29;20391;-62
2022/11/12 15:13:15;;;;;;;32.03;22.85;;;;;;;;;;4862766;29;20140;-62
2022/11/12 15:16:07;;;;;;;28.48;18.98;;;;;;;;;;4863044;29;20231;-62
2022/11/12 15:19:00;;;;;;;31.55;20.50;;;;;;;;;;4862163;29;20110;-67
2022/11/12 15:21:46;;;;;;;30.17;21.00;;;;;;;;;;4862603;29;20063;-62
2022/11/12 15:24:32;;;;;;;26.98;18.27;;;;;;;;;;4862655;29;20060;-62
2022/11/12 15:27:33;;;;;;;26.77;18.05;;;;;;;;;;4864283;29;20133;-62
2022/11/12 15:30:23;;;;;;;29.08;18.02;;;;;;;;;;4866566;29;20093;-60
2022/11/12 15:33:16;;;;;;;26.67;17.90;;;;;;;;;;4866683;29;20056;-61
2022/11/12 15:36:01;;;;;;;28.40;18.77;;;;;;;;;;4866046;29;20105;-62
2022/11/12 15:38:53;;;;;;;26.55;17.55;;;;;;;;;;4863916;29;20060;-61
2022/11/12 15:41:38;;;;;;;27.20;18.55;;;;;;;;;;4862995;29;20437;-61
2022/11/12 15:44:24;;;;;;;27.35;19.25;;;;;;;;;;4863162;29;20418;-62
2022/11/12 15:47:14;;;;;;;28.08;18.48;;;;;;;;;;4864088;29;20513;-61
2022/11/12 15:49:59;;;;;;;29.25;18.33;;;;;;;;;;4861649;29;20056;-61
2022/11/12 15:52:44;;;;;;;27.25;18.52;;;;;;;;;;4861886;29;20069;-61
2022/11/12 15:55:30;;;;;;;28.42;18.80;;;;;;;;;;4862531;29;20056;-62
2022/11/12 15:58:21;;;;;;;29.25;19.05;;;;;;;;;;4862396;29;20486;-61
2022/11/12 16:01:06;;;;;;;34.15;21.02;;;;;;;;;;4862579;29;20060;-62
2022/11/12 16:03:52;;;;;;;30.40;20.10;;;;;;;;;;4862239;29;20137;-62
2022/11/12 16:06:36;;;;;;;31.80;20.58;;;;;;;;;;4862405;29;20056;-62
2022/11/12 16:09:21;;;;;;;31.42;20.65;;;;;;;;;;4862876;29;20127;-62
2022/11/12 16:12:10;;;;;;;33.60;19.85;;;;;;;;;;4861845;29;20513;-62
2022/11/12 16:14:58;;;;;;;28.55;18.85;;;;;;;;;;4861297;29;20064;-62
2022/11/12 16:17:44;;;;;;;28.77;18.90;;;;;;;;;;4862141;29;20056;-63
2022/11/12 16:20:30;;;;;;;27.58;20.08;;;;;;;;;;4861145;29;20064;-62
2022/11/12 16:23:15;;;;;;;26.80;18.08;;;;;;;;;;4860294;29;20065;-62
2022/11/12 16:26:01;;;;;;;29.08;17.45;;;;;;;;;;4861726;29;20061;-61
2022/11/12 16:28:46;;;;;;;29.90;18.63;;;;;;;;;;4861633;29;20140;-62
2022/11/12 16:31:30;;;;;;;28.60;18.52;;;;;;;;;;4861820;29;20414;-62
2022/11/12 16:34:15;;;;;;;26.40;16.60;;;;;;;;;;4861700;29;20470;-62
2022/11/12 16:37:00;;;;;;;26.27;16.17;;;;;;;;;;4861430;29;20418;-62
2022/11/12 16:39:45;;;;;;;53.15;35.92;;;;;;;;;;4861584;29;20061;-62
2022/11/12 16:42:30;;;;;;;31.85;21.25;;;;;;;;;;4860672;29;20061;-62
2022/11/12 16:45:16;;;;;;;28.80;17.90;;;;;;;;;;4861279;29;20113;-62
2022/11/12 16:48:05;;;;;;;31.60;17.65;;;;;;;;;;4860562;29;20053;-62
2022/11/12 16:50:50;;;;;;;29.27;17.92;;;;;;;;;;4860963;29;20075;-62
2022/11/12 16:53:35;;;;;;;29.88;18.25;;;;;;;;;;4860452;29;20109;-61
2022/11/12 16:56:21;;;;;;;28.55;18.23;;;;;;;;;;4860236;29;20076;-61
2022/11/12 16:59:06;;;;;;;29.55;19.75;;;;;;;;;;4860635;29;20063;-60
2022/11/12 17:01:51;;;;;;;26.40;17.75;;;;;;;;;;4859647;29;20068;-61